Time;durP1;ratioP1;P1;durP2;ratioP2;P2;SDS_P1;SDS_P2;PMS_P1;PMS_P2;Temp;Humidity;BMP_temperature;BMP_pressure;BME280_temperature;BME280_humidity;BME280_pressure;Samples;Min_cycle;Max_cycle;Signal;HPM_P1;HPM_P2
2022/12/26 00:01:07;;;;;;;;;;;;;;;;;;4978563;28;19914;-94
2022/12/26 00:03:32;;;;;;;;;;;;;;;;;;4978367;28;19953;-94
2022/12/26 00:05:58;;;;;;;;;;;;;;;;;;4977749;28;19913;-95
2022/12/26 00:08:24;;;;;;;;;;;;;;;;;;4993991;28;19914;-94
2022/12/26 00:10:49;;;;;;;;;;;;;;;;;;4977528;28;19910;-94
2022/12/26 00:13:15;;;;;;;;;;;;;;;;;;4994506;28;19932;-93
2022/12/26 00:15:40;;;;;;;;;;;;;;;;;;4980344;28;19928;-93
2022/12/26 00:18:05;;;;;;;;;;;;;;;;;;4996798;28;19901;-94
2022/12/26 00:20:31;;;;;;;;;;;;;;;;;;4979516;28;19913;-91
2022/12/26 00:22:56;;;;;;;;;;;;;;;;;;4998459;28;19913;-94
2022/12/26 00:25:22;;;;;;;;;;;;;;;;;;4987674;28;19918;-94
2022/12/26 00:27:47;;;;;;;;;;;;;;;;;;4968383;28;20004;-94
2022/12/26 00:30:13;;;;;;;;;;;;;;;;;;4985129;28;19918;-92
2022/12/26 00:32:38;;;;;;;;;;;;;;;;;;4983670;28;20270;-94
2022/12/26 00:35:04;;;;;;;;;;;;;;;;;;4982139;28;19914;-95
2022/12/26 00:37:29;;;;;;;;;;;;;;;;;;4967030;28;19918;-93
2022/12/26 00:39:56;;;;;;;;;;;;;;;;;;5000536;28;19964;-94
2022/12/26 00:42:21;;;;;;;;;;;;;;;;;;4968050;28;19914;-94
2022/12/26 00:44:47;;;;;;;;;;;;;;;;;;4971343;28;20289;-94
2022/12/26 00:47:12;;;;;;;;;;;;;;;;;;4982002;28;19965;-95
2022/12/26 00:49:40;;;;;;;;;;;;;;;;;;4982074;28;19914;-95
2022/12/26 00:52:05;;;;;;;;;;;;;;;;;;4967508;28;20064;-94
2022/12/26 00:54:31;;;;;;;;;;;;;;;;;;4966534;28;20262;-94
2022/12/26 00:56:56;;;;;;;;;;;;;;;;;;4965355;28;19921;-93
2022/12/26 00:59:21;;;;;;;;;;;;;;;;;;4967239;28;19913;-94
2022/12/26 01:01:47;;;;;;;;;;;;;;;;;;4966997;28;19913;-94
2022/12/26 01:04:12;;;;;;;;;;;;;;;;;;4982773;28;20345;-93
2022/12/26 01:06:38;;;;;;;;;;;;;;;;;;4967942;28;19957;-94
2022/12/26 01:09:03;;;;;;;;;;;;;;;;;;4966388;28;20012;-92
2022/12/26 01:11:41;;;;;;;;;;;;;;;;;;4984297;28;19914;-93
2022/12/26 01:14:07;;;;;;;;;;;;;;;;;;4967357;28;19917;-94
2022/12/26 01:16:32;;;;;;;;;;;;;;;;;;4982624;28;19968;-92
2022/12/26 01:18:58;;;;;;;;;;;;;;;;;;4982012;28;19914;-94
2022/12/26 01:21:24;;;;;;;;;;;;;;;;;;4966150;28;19920;-92
2022/12/26 01:23:49;;;;;;;;;;;;;;;;;;4966497;28;19921;-94
2022/12/26 01:26:15;;;;;;;;;;;;;;;;;;4980406;28;19918;-93
2022/12/26 01:28:40;;;;;;;;;;;;;;;;;;4965976;28;20229;-92
2022/12/26 01:31:05;;;;;;;;;;;;;;;;;;4982130;28;19914;-92
2022/12/26 01:33:31;;;;;;;;;;;;;;;;;;4981526;28;20377;-94
2022/12/26 01:35:56;;;;;;;;;;;;;;;;;;4965512;28;19918;-93
2022/12/26 01:38:22;;;;;;;;;;;;;;;;;;4962771;28;19914;-94
2022/12/26 01:40:47;;;;;;;;;;;;;;;;;;4963832;28;19925;-93
2022/12/26 01:43:13;;;;;;;;;;;;;;;;;;4962398;28;19918;-93
2022/12/26 01:45:38;;;;;;;;;;;;;;;;;;4963785;28;19921;-93
2022/12/26 01:48:03;;;;;;;;;;;;;;;;;;4979478;28;19921;-93
2022/12/26 01:50:29;;;;;;;;;;;;;;;;;;4964610;28;19913;-94
2022/12/26 01:52:54;;;;;;;;;;;;;;;;;;4963162;28;20315;-95
2022/12/26 01:55:20;;;;;;;;;;;;;;;;;;4981600;28;19914;-93
2022/12/26 01:57:45;;;;;;;;;;;;;;;;;;4980297;28;19968;-93
2022/12/26 02:00:14;;;;;;;;;;;;;;;;;;4980233;28;19957;-95
2022/12/26 02:05:33;;;;;;;;;;;;;;;;;;4980513;28;19924;-95
2022/12/26 02:07:58;;;;;;;;;;;;;;;;;;4967770;28;19970;-91
2022/12/26 02:10:23;;;;;;;;;;;;;;;;;;4980331;28;19910;-93
2022/12/26 02:12:49;;;;;;;;;;;;;;;;;;4965985;28;19921;-95
2022/12/26 02:15:14;;;;;;;;;;;;;;;;;;4967945;28;19924;-93
2022/12/26 02:17:40;;;;;;;;;;;;;;;;;;4973485;28;19917;-90
2022/12/26 02:20:05;;;;;;;;;;;;;;;;;;4984622;28;19914;-93
2022/12/26 02:22:32;;;;;;;;;;;;;;;;;;4992466;28;19949;-91
2022/12/26 02:24:57;;;;;;;;;;;;;;;;;;4991379;28;19921;-92
2022/12/26 02:27:23;;;;;;;;;;;;;;;;;;5362698;23;19935;-87
2022/12/26 02:29:51;;;;;;;;;;;;;;;;;;4984141;28;19940;-90
2022/12/26 02:32:18;;;;;;;;;;;;;;;;;;5000994;28;19914;-87
2022/12/26 02:34:46;;;;;;;;;;;;;;;;;;5003115;28;19909;-87
2022/12/26 02:37:13;;;;;;;;;;;;;;;;;;4983001;28;19973;-89
2022/12/26 03:17:36;;;;;;;;;;;;;;;;;;5016399;28;20386;-91
2022/12/26 03:20:02;;;;;;;;;;;;;;;;;;5000091;28;19898;-91
2022/12/26 03:22:31;;;;;;;;;;;;;;;;;;4985198;28;19898;-89
2022/12/26 03:35:48;;;;;;;;;;;;;;;;;;5701513;23;19926;-90
2022/12/26 03:38:14;;;;;;;;;;;;;;;;;;5108463;23;19929;-89
2022/12/26 04:51:53;;;;;;;;;;;;;;;;;;5397884;23;19926;-92
2022/12/26 04:59:34;;;;;;;;;;;;;;;;;;5147678;22;19926;-91
2022/12/26 05:10:11;;;;;;;;;;;;;;;;;;5490998;22;19925;-94
2022/12/26 05:12:37;;;;;;;;;;;;;;;;;;5004195;28;20009;-94
2022/12/26 05:15:05;;;;;;;;;;;;;;;;;;4996994;28;19918;-92
2022/12/26 05:28:41;;;;;;;;;;;;;;;;;;4999464;28;20362;-95
2022/12/26 05:31:06;;;;;;;;;;;;;;;;;;4979840;28;19921;-93
2022/12/26 05:36:16;;;;;;;;;;;;;;;;;;4985921;28;20389;-88
2022/12/26 05:38:41;;;;;;;;;;;;;;;;;;4955514;28;19973;-85
2022/12/26 05:41:07;;;;;;;;;;;;;;;;;;4964397;28;19937;-89
2022/12/26 05:43:32;;;;;;;;;;;;;;;;;;4940745;29;19914;-89
2022/12/26 05:45:57;;;;;;;;;;;;;;;;;;4961031;28;19922;-86
2022/12/26 05:48:23;;;;;;;;;;;;;;;;;;4950153;29;19914;-89
2022/12/26 05:50:48;;;;;;;;;;;;;;;;;;4949073;29;19961;-88
2022/12/26 05:53:14;;;;;;;;;;;;;;;;;;4953517;29;20252;-89
2022/12/26 05:55:39;;;;;;;;;;;;;;;;;;4956502;29;19914;-90
2022/12/26 05:58:04;;;;;;;;;;;;;;;;;;4940036;29;20409;-91
2022/12/26 06:00:30;;;;;;;;;;;;;;;;;;4939784;29;19926;-90
2022/12/26 06:02:55;;;;;;;;;;;;;;;;;;4939955;29;19960;-91
2022/12/26 06:05:20;;;;;;;;;;;;;;;;;;4939863;29;19921;-90
2022/12/26 06:07:46;;;;;;;;;;;;;;;;;;4939376;29;20374;-90
2022/12/26 06:10:11;;;;;;;;;;;;;;;;;;4955356;29;19958;-90
2022/12/26 06:12:37;;;;;;;;;;;;;;;;;;4955174;28;19919;-90
2022/12/26 06:15:02;;;;;;;;;;;;;;;;;;4955286;29;19922;-90
2022/12/26 06:17:27;;;;;;;;;;;;;;;;;;4956070;29;19926;-90
2022/12/26 06:19:53;;;;;;;;;;;;;;;;;;4940454;29;20294;-90
2022/12/26 06:22:18;;;;;;;;;;;;;;;;;;4956588;29;20386;-89
2022/12/26 06:24:44;;;;;;;;;;;;;;;;;;4938849;29;19922;-91
2022/12/26 06:27:09;;;;;;;;;;;;;;;;;;4956068;28;19922;-90
2022/12/26 06:29:34;;;;;;;;;;;;;;;;;;4938773;29;20021;-90
2022/12/26 06:32:00;;;;;;;;;;;;;;;;;;4938521;29;19914;-90
2022/12/26 06:34:26;;;;;;;;;;;;;;;;;;4938488;29;20366;-90
2022/12/26 06:36:51;;;;;;;;;;;;;;;;;;4954496;29;19922;-90
2022/12/26 06:39:17;;;;;;;;;;;;;;;;;;4939360;29;19930;-88
2022/12/26 06:41:42;;;;;;;;;;;;;;;;;;4940489;29;19915;-88
2022/12/26 06:44:07;;;;;;;;;;;;;;;;;;4943086;29;19921;-86
2022/12/26 06:46:33;;;;;;;;;;;;;;;;;;4940237;29;19914;-89
2022/12/26 06:48:58;;;;;;;;;;;;;;;;;;4949520;29;19921;-87
2022/12/26 06:51:24;;;;;;;;;;;;;;;;;;4974453;29;19921;-86
2022/12/26 06:53:49;;;;;;;;;;;;;;;;;;4962377;28;19915;-88
2022/12/26 06:56:15;;;;;;;;;;;;;;;;;;4953566;29;19929;-88
2022/12/26 06:58:40;;;;;;;;;;;;;;;;;;4973757;29;19918;-89
2022/12/26 07:01:05;;;;;;;;;;;;;;;;;;4973432;28;19915;-87
2022/12/26 07:03:31;;;;;;;;;;;;;;;;;;4975303;28;19914;-86
2022/12/26 07:05:56;;;;;;;;;;;;;;;;;;4959843;29;19914;-88
2022/12/26 07:08:22;;;;;;;;;;;;;;;;;;4976904;28;19919;-88
2022/12/26 07:10:48;;;;;;;;;;;;;;;;;;4968876;29;19918;-88
2022/12/26 07:13:13;;;;;;;;;;;;;;;;;;4949827;29;19915;-87
2022/12/26 07:15:38;;;;;;;;;;;;;;;;;;4941921;29;19954;-87
2022/12/26 07:18:04;;;;;;;;;;;;;;;;;;4954502;29;19986;-88
2022/12/26 07:20:33;;;;;;;;;;;;;;;;;;4973513;29;19914;-86
2022/12/26 07:22:58;;;;;;;;;;;;;;;;;;4956554;29;19990;-89
2022/12/26 07:25:24;;;;;;;;;;;;;;;;;;4977037;29;19915;-88
2022/12/26 07:27:49;;;;;;;;;;;;;;;;;;4979279;28;19921;-88
2022/12/26 07:30:15;;;;;;;;;;;;;;;;;;4979122;29;19919;-88
2022/12/26 07:32:41;;;;;;;;;;;;;;;;;;4963219;28;19965;-87
2022/12/26 07:35:06;;;;;;;;;;;;;;;;;;4977296;29;19914;-88
2022/12/26 07:37:31;;;;;;;;;;;;;;;;;;4962688;29;19902;-86
2022/12/26 07:39:57;;;;;;;;;;;;;;;;;;4963243;29;19922;-86
2022/12/26 07:42:22;;;;;;;;;;;;;;;;;;4949830;29;19921;-86
2022/12/26 07:44:48;;;;;;;;;;;;;;;;;;4945842;29;19915;-88
2022/12/26 07:47:15;;;;;;;;;;;;;;;;;;4969868;28;19907;-87
2022/12/26 07:49:40;;;;;;;;;;;;;;;;;;4979810;29;19924;-87
2022/12/26 07:52:05;;;;;;;;;;;;;;;;;;4977314;28;19922;-88
2022/12/26 07:54:32;;;;;;;;;;;;;;;;;;4978339;28;19902;-87
2022/12/26 07:56:57;;;;;;;;;;;;;;;;;;4964213;29;19925;-88
2022/12/26 07:59:23;;;;;;;;;;;;;;;;;;4976391;29;19939;-89
2022/12/26 08:01:48;;;;;;;;;;;;;;;;;;4980216;29;19921;-88
2022/12/26 08:04:14;;;;;;;;;;;;;;;;;;4979781;28;19922;-89
2022/12/26 08:06:39;;;;;;;;;;;;;;;;;;4975002;29;19914;-86
2022/12/26 08:09:05;;;;;;;;;;;;;;;;;;4947236;29;20027;-89
2022/12/26 08:11:30;;;;;;;;;;;;;;;;;;4958069;29;19918;-87
2022/12/26 08:13:56;;;;;;;;;;;;;;;;;;4977780;28;19915;-88
2022/12/26 08:16:21;;;;;;;;;;;;;;;;;;4961256;29;19914;-88
2022/12/26 08:18:47;;;;;;;;;;;;;;;;;;4978657;28;19915;-88
2022/12/26 08:21:12;;;;;;;;;;;;;;;;;;4961650;29;19914;-87
2022/12/26 08:23:37;;;;;;;;;;;;;;;;;;4978582;28;20334;-88
2022/12/26 08:26:03;;;;;;;;;;;;;;;;;;4977290;29;19949;-88
2022/12/26 08:28:32;;;;;;;;;;;;;;;;;;4959309;29;19910;-88
2022/12/26 08:30:57;;;;;;;;;;;;;;;;;;4978621;28;19914;-88
2022/12/26 08:33:23;;;;;;;;;;;;;;;;;;4962370;29;19978;-88
2022/12/26 08:35:48;;;;;;;;;;;;;;;;;;4980252;28;19961;-87
2022/12/26 08:38:14;;;;;;;;;;;;;;;;;;4952329;29;19922;-89
2022/12/26 08:40:39;;;;;;;;;;;;;;;;;;4949801;29;19962;-89
2022/12/26 08:43:05;;;;;;;;;;;;;;;;;;4977746;28;19954;-88
2022/12/26 08:45:31;;;;;;;;;;;;;;;;;;4974674;28;20461;-88
2022/12/26 08:47:58;;;;;;;;;;;;;;;;;;4957332;29;19914;-89
2022/12/26 08:50:23;;;;;;;;;;;;;;;;;;4957585;29;20008;-88
2022/12/26 08:52:49;;;;;;;;;;;;;;;;;;4973928;28;19982;-87
2022/12/26 08:55:14;;;;;;;;;;;;;;;;;;4976560;28;19922;-87
2022/12/26 08:57:43;;;;;;;;;;;;;;;;;;4958265;29;19953;-88
2022/12/26 09:00:09;;;;;;;;;;;;;;;;;;4974548;29;19950;-87
2022/12/26 09:02:35;;;;;;;;;;;;;;;;;;4962058;28;19902;-87
2022/12/26 09:05:00;;;;;;;;;;;;;;;;;;4979865;28;19921;-86
2022/12/26 09:07:25;;;;;;;;;;;;;;;;;;4979023;28;19898;-85
2022/12/26 09:09:51;;;;;;;;;;;;;;;;;;4961438;29;19914;-86
2022/12/26 09:12:16;;;;;;;;;;;;;;;;;;4961664;29;19922;-86
2022/12/26 09:14:42;;;;;;;;;;;;;;;;;;4970929;28;19914;-87
2022/12/26 09:17:07;;;;;;;;;;;;;;;;;;4978406;29;19940;-87
2022/12/26 09:19:33;;;;;;;;;;;;;;;;;;4978547;28;19953;-87
2022/12/26 09:24:42;;;;;;;;;;;;;;;;;;4962138;29;19903;-87
2022/12/26 09:27:11;;;;;;;;;;;;;;;;;;4958706;29;19930;-87
2022/12/26 09:29:37;;;;;;;;;;;;;;;;;;4962407;29;19915;-88
2022/12/26 09:32:02;;;;;;;;;;;;;;;;;;4962364;29;19987;-87
2022/12/26 09:34:27;;;;;;;;;;;;;;;;;;4951834;29;20049;-88
2022/12/26 09:36:53;;;;;;;;;;;;;;;;;;4952872;29;19918;-88
2022/12/26 09:39:18;;;;;;;;;;;;;;;;;;4963563;29;20286;-88
2022/12/26 09:41:44;;;;;;;;;;;;;;;;;;4947696;29;19954;-87
2022/12/26 09:44:09;;;;;;;;;;;;;;;;;;4961787;28;19907;-88
2022/12/26 09:46:35;;;;;;;;;;;;;;;;;;4972115;28;19915;-89
2022/12/26 09:49:00;;;;;;;;;;;;;;;;;;4941237;29;20325;-90
2022/12/26 09:51:26;;;;;;;;;;;;;;;;;;4939766;29;19952;-89
2022/12/26 09:53:51;;;;;;;;;;;;;;;;;;4940462;29;19914;-88
2022/12/26 09:56:16;;;;;;;;;;;;;;;;;;4940206;29;20012;-89
2022/12/26 09:58:42;;;;;;;;;;;;;;;;;;4940347;29;19970;-89
2022/12/26 10:01:07;;;;;;;;;;;;;;;;;;4943690;29;19915;-89
2022/12/26 10:03:33;;;;;;;;;;;;;;;;;;4940577;29;20053;-89
2022/12/26 10:05:58;;;;;;;;;;;;;;;;;;4939893;29;19958;-89
2022/12/26 10:08:24;;;;;;;;;;;;;;;;;;4944418;29;19949;-90
2022/12/26 10:10:49;;;;;;;;;;;;;;;;;;4941300;29;19921;-87
2022/12/26 10:13:14;;;;;;;;;;;;;;;;;;4961635;28;20338;-89
2022/12/26 10:15:40;;;;;;;;;;;;;;;;;;4946225;29;19918;-89
2022/12/26 10:18:05;;;;;;;;;;;;;;;;;;4945787;29;20362;-87
2022/12/26 10:20:31;;;;;;;;;;;;;;;;;;4947074;29;20389;-90
2022/12/26 10:22:56;;;;;;;;;;;;;;;;;;4941567;29;19961;-90
2022/12/26 10:25:21;;;;;;;;;;;;;;;;;;4941598;29;19914;-90
2022/12/26 10:27:47;;;;;;;;;;;;;;;;;;4940657;29;19914;-91
2022/12/26 10:30:12;;;;;;;;;;;;;;;;;;4955465;29;19965;-90
2022/12/26 10:32:38;;;;;;;;;;;;;;;;;;4938917;28;19921;-90
2022/12/26 10:35:03;;;;;;;;;;;;;;;;;;4939508;29;19970;-90
2022/12/26 10:37:29;;;;;;;;;;;;;;;;;;4955536;29;20341;-91
2022/12/26 10:39:55;;;;;;;;;;;;;;;;;;4939310;29;19922;-90
2022/12/26 10:42:20;;;;;;;;;;;;;;;;;;4939060;29;20373;-90
2022/12/26 10:44:46;;;;;;;;;;;;;;;;;;4955111;28;20005;-90
2022/12/26 10:47:11;;;;;;;;;;;;;;;;;;4939772;29;19936;-90
2022/12/26 10:49:36;;;;;;;;;;;;;;;;;;4939783;29;19918;-91
2022/12/26 10:52:02;;;;;;;;;;;;;;;;;;4941359;29;19915;-90
2022/12/26 10:54:27;;;;;;;;;;;;;;;;;;4939400;29;19958;-89
2022/12/26 10:56:52;;;;;;;;;;;;;;;;;;4955344;29;19919;-91
2022/12/26 10:59:18;;;;;;;;;;;;;;;;;;4938583;29;19921;-90
2022/12/26 11:01:46;;;;;;;;;;;;;;;;;;4939013;29;20158;-88
2022/12/26 11:04:11;;;;;;;;;;;;;;;;;;4938905;29;20286;-89
2022/12/26 11:06:37;;;;;;;;;;;;;;;;;;4955353;28;19915;-89
2022/12/26 11:09:02;;;;;;;;;;;;;;;;;;4954381;29;19914;-89
2022/12/26 11:11:44;;;;;;;;;;;;;;;;;;4956383;28;19914;-87
2022/12/26 11:14:09;;;;;;;;;;;;;;;;;;4955604;28;20457;-86
2022/12/26 11:16:35;;;;;;;;;;;;;;;;;;4955759;28;19968;-86
2022/12/26 11:19:00;;;;;;;;;;;;;;;;;;4954008;29;20275;-86
2022/12/26 11:21:25;;;;;;;;;;;;;;;;;;4954791;28;20006;-87
2022/12/26 11:23:51;;;;;;;;;;;;;;;;;;4954711;28;20301;-86
2022/12/26 11:26:16;;;;;;;;;;;;;;;;;;4954644;29;19969;-87
2022/12/26 11:28:42;;;;;;;;;;;;;;;;;;4956335;28;19914;-87
2022/12/26 11:31:08;;;;;;;;;;;;;;;;;;4938243;29;20270;-87
2022/12/26 11:36:00;;;;;;;;;;;;;;;;;;4997112;28;19926;-92
2022/12/26 11:38:35;;;;;;;;;;;;;;;;;;4980177;28;19940;-90
2022/12/26 11:43:44;;;;;;;;;;;;;;;;;;4979292;28;19921;-90
2022/12/26 11:46:10;;;;;;;;;;;;;;;;;;4966305;28;19914;-88
2022/12/26 11:48:35;;;;;;;;;;;;;;;;;;4983614;28;19917;-93
2022/12/26 11:51:01;;;;;;;;;;;;;;;;;;4969891;28;20281;-90
2022/12/26 11:53:26;;;;;;;;;;;;;;;;;;4971670;28;19914;-94
2022/12/26 11:55:52;;;;;;;;;;;;;;;;;;4971049;28;20016;-93
2022/12/26 11:58:18;;;;;;;;;;;;;;;;;;4987537;28;19961;-93
2022/12/26 12:00:43;;;;;;;;;;;;;;;;;;4969646;28;19921;-91
2022/12/26 12:03:08;;;;;;;;;;;;;;;;;;4990435;28;19920;-90
2022/12/26 12:05:34;;;;;;;;;;;;;;;;;;4975685;28;19910;-90
2022/12/26 12:07:59;;;;;;;;;;;;;;;;;;4994623;28;19921;-92
2022/12/26 12:10:25;;;;;;;;;;;;;;;;;;5009414;28;19924;-94
2022/12/26 12:12:50;;;;;;;;;;;;;;;;;;4971718;28;20370;-93
2022/12/26 12:15:16;;;;;;;;;;;;;;;;;;4993225;28;19949;-90
2022/12/26 12:17:47;;;;;;;;;;;;;;;;;;4986079;28;19978;-92
2022/12/26 12:20:29;;;;;;;;;;;;;;;;;;4987318;28;19918;-91
2022/12/26 12:22:57;;;;;;;;;;;;;;;;;;4993664;28;19921;-90
2022/12/26 12:25:23;;;;;;;;;;;;;;;;;;4977950;28;19946;-93
2022/12/26 12:27:53;;;;;;;;;;;;;;;;;;4984636;28;19906;-91
2022/12/26 12:30:19;;;;;;;;;;;;;;;;;;4976657;28;19944;-89
2022/12/26 12:32:44;;;;;;;;;;;;;;;;;;4967815;28;20032;-92
2022/12/26 12:35:11;;;;;;;;;;;;;;;;;;4968776;28;19918;-92
2022/12/26 12:37:37;;;;;;;;;;;;;;;;;;4965447;28;20366;-93
2022/12/26 12:40:02;;;;;;;;;;;;;;;;;;4965059;28;19961;-93
2022/12/26 12:42:27;;;;;;;;;;;;;;;;;;4965849;28;19940;-91
2022/12/26 12:44:53;;;;;;;;;;;;;;;;;;4975695;28;19921;-92
2022/12/26 12:47:18;;;;;;;;;;;;;;;;;;4968800;28;19920;-91
2022/12/26 12:49:44;;;;;;;;;;;;;;;;;;4977170;28;19909;-92
2022/12/26 12:52:10;;;;;;;;;;;;;;;;;;4978040;28;19956;-93
2022/12/26 12:54:35;;;;;;;;;;;;;;;;;;4964828;28;19918;-94
2022/12/26 12:57:03;;;;;;;;;;;;;;;;;;4964336;28;19921;-91
2022/12/26 12:59:30;;;;;;;;;;;;;;;;;;4978411;28;19949;-91
2022/12/26 13:01:56;;;;;;;;;;;;;;;;;;4969188;28;19937;-91
2022/12/26 13:04:22;;;;;;;;;;;;;;;;;;4981086;28;19968;-93
2022/12/26 13:07:17;;;;;;;;;;;;;;;;;;5517619;22;19944;-92
2022/12/26 13:09:50;;;;;;;;;;;;;;;;;;4971178;28;19917;-91
2022/12/26 13:12:18;;;;;;;;;;;;;;;;;;4964525;28;20606;-93
2022/12/26 13:14:47;;;;;;;;;;;;;;;;;;4986628;28;19949;-92
2022/12/26 13:17:12;;;;;;;;;;;;;;;;;;4973088;28;19984;-92
2022/12/26 13:19:39;;;;;;;;;;;;;;;;;;4985988;28;19906;-92
2022/12/26 13:24:42;;;;;;;;;;;;;;;;;;4988419;28;19926;-93
2022/12/26 13:27:07;;;;;;;;;;;;;;;;;;4988194;28;19914;-90
2022/12/26 13:29:33;;;;;;;;;;;;;;;;;;5467719;23;20253;-85
2022/12/26 13:31:59;;;;;;;;;;;;;;;;;;5106007;22;20323;-90
2022/12/26 13:34:27;;;;;;;;;;;;;;;;;;5064539;23;19913;-90
2022/12/26 13:36:53;;;;;;;;;;;;;;;;;;5042044;28;19923;-89
2022/12/26 13:39:19;;;;;;;;;;;;;;;;;;5040838;28;19928;-88
2022/12/26 13:44:31;;;;;;;;;;;;;;;;;;5033616;28;20074;-91
2022/12/26 13:46:56;;;;;;;;;;;;;;;;;;5036436;28;19918;-93
2022/12/26 13:49:22;;;;;;;;;;;;;;;;;;5018201;28;19940;-93
2022/12/26 13:51:47;;;;;;;;;;;;;;;;;;5010292;28;19914;-94
2022/12/26 13:54:13;;;;;;;;;;;;;;;;;;5002120;28;19917;-95
2022/12/26 13:56:38;;;;;;;;;;;;;;;;;;5004184;28;19928;-94
2022/12/26 13:59:04;;;;;;;;;;;;;;;;;;5001770;28;20000;-94
2022/12/26 14:01:29;;;;;;;;;;;;;;;;;;5000590;28;19939;-93
2022/12/26 14:03:55;;;;;;;;;;;;;;;;;;4998395;28;20360;-94
2022/12/26 14:06:20;;;;;;;;;;;;;;;;;;4998249;28;20345;-95
2022/12/26 14:08:45;;;;;;;;;;;;;;;;;;4999693;28;19920;-93
2022/12/26 14:11:11;;;;;;;;;;;;;;;;;;4999262;28;19920;-93
2022/12/26 14:13:36;;;;;;;;;;;;;;;;;;5000302;28;20313;-92
2022/12/26 14:16:02;;;;;;;;;;;;;;;;;;5000516;28;20000;-93
2022/12/26 14:18:27;;;;;;;;;;;;;;;;;;5016181;28;19914;-95
2022/12/26 14:20:53;;;;;;;;;;;;;;;;;;4999684;28;19936;-95
2022/12/26 14:23:18;;;;;;;;;;;;;;;;;;5017450;28;19913;-95
2022/12/26 14:28:25;;;;;;;;;;;;;;;;;;5710442;22;19926;-93
2022/12/26 14:31:00;;;;;;;;;;;;;;;;;;4997681;28;19976;-93
2022/12/26 14:33:29;;;;;;;;;;;;;;;;;;5025803;23;19926;-93
2022/12/26 14:36:15;;;;;;;;;;;;;;;;;;4961176;28;19941;-95
2022/12/26 14:38:43;;;;;;;;;;;;;;;;;;4950844;28;19914;-93
2022/12/26 14:43:45;;;;;;;;;;;;;;;;;;5652129;22;19930;-93
2022/12/26 14:46:11;;;;;;;;;;;;;;;;;;4997987;28;19906;-91
2022/12/26 14:48:36;;;;;;;;;;;;;;;;;;4984416;28;19925;-93
2022/12/26 14:51:02;;;;;;;;;;;;;;;;;;5016464;28;19924;-93
2022/12/26 14:53:27;;;;;;;;;;;;;;;;;;4990526;28;19914;-93
2022/12/26 14:55:53;;;;;;;;;;;;;;;;;;4966908;28;19914;-95
2022/12/26 14:58:18;;;;;;;;;;;;;;;;;;4966094;28;20009;-95
2022/12/26 15:00:44;;;;;;;;;;;;;;;;;;4965566;28;19914;-94
2022/12/26 15:03:09;;;;;;;;;;;;;;;;;;4963480;28;20274;-96
2022/12/26 15:05:35;;;;;;;;;;;;;;;;;;4963459;28;19914;-94
2022/12/26 15:08:00;;;;;;;;;;;;;;;;;;4962030;28;19941;-96
2022/12/26 15:10:25;;;;;;;;;;;;;;;;;;4961791;28;19917;-96
2022/12/26 15:12:51;;;;;;;;;;;;;;;;;;4961710;28;20370;-96
2022/12/26 15:15:16;;;;;;;;;;;;;;;;;;4961707;28;19968;-95
2022/12/26 15:17:42;;;;;;;;;;;;;;;;;;4962230;28;19921;-96
2022/12/26 15:20:08;;;;;;;;;;;;;;;;;;4961813;28;19914;-96
2022/12/26 15:22:33;;;;;;;;;;;;;;;;;;4962166;28;19964;-96
2022/12/26 15:24:58;;;;;;;;;;;;;;;;;;4962592;28;19914;-96
2022/12/26 15:27:24;;;;;;;;;;;;;;;;;;4962568;28;19920;-96
2022/12/26 15:29:49;;;;;;;;;;;;;;;;;;4964247;28;19918;-95
2022/12/26 15:32:15;;;;;;;;;;;;;;;;;;4962436;28;20408;-96
2022/12/26 15:34:40;;;;;;;;;;;;;;;;;;4961523;28;19913;-96
2022/12/26 15:37:06;;;;;;;;;;;;;;;;;;4962337;28;19932;-96
2022/12/26 15:39:31;;;;;;;;;;;;;;;;;;4961647;28;19921;-96
2022/12/26 15:41:56;;;;;;;;;;;;;;;;;;4961800;28;19914;-96
2022/12/26 15:44:22;;;;;;;;;;;;;;;;;;4962533;28;19922;-96
2022/12/26 15:46:49;;;;;;;;;;;;;;;;;;4966388;28;20337;-96
2022/12/26 15:49:15;;;;;;;;;;;;;;;;;;4966559;28;19918;-96
2022/12/26 15:51:40;;;;;;;;;;;;;;;;;;4982746;28;19920;-96
2022/12/26 15:54:05;;;;;;;;;;;;;;;;;;4965596;28;19914;-96
2022/12/26 15:56:31;;;;;;;;;;;;;;;;;;4966982;28;19977;-96
2022/12/26 15:58:57;;;;;;;;;;;;;;;;;;4966364;28;20045;-95
2022/12/26 16:01:22;;;;;;;;;;;;;;;;;;4982104;28;19917;-96
2022/12/26 16:03:48;;;;;;;;;;;;;;;;;;4965689;28;19922;-95
2022/12/26 16:06:13;;;;;;;;;;;;;;;;;;4967495;28;19917;-96
2022/12/26 16:08:39;;;;;;;;;;;;;;;;;;4965366;28;19921;-96
2022/12/26 16:11:04;;;;;;;;;;;;;;;;;;4967011;28;19914;-96
2022/12/26 16:13:30;;;;;;;;;;;;;;;;;;4966336;28;19918;-96
2022/12/26 16:16:01;;;;;;;;;;;;;;;;;;4965744;28;19915;-96
2022/12/26 16:18:27;;;;;;;;;;;;;;;;;;4981987;28;20009;-95
2022/12/26 16:23:38;;;;;;;;;;;;;;;;;;4977961;28;19914;-96
2022/12/26 16:26:05;;;;;;;;;;;;;;;;;;4983790;28;22092;-94
2022/12/26 16:28:31;;;;;;;;;;;;;;;;;;4965834;28;19914;-95
2022/12/26 16:30:56;;;;;;;;;;;;;;;;;;4966030;28;19953;-96
2022/12/26 16:33:21;;;;;;;;;;;;;;;;;;4981547;28;19914;-96
2022/12/26 16:35:47;;;;;;;;;;;;;;;;;;4968441;28;19913;-96
2022/12/26 16:38:12;;;;;;;;;;;;;;;;;;4965202;28;19929;-94
2022/12/26 16:40:38;;;;;;;;;;;;;;;;;;4981356;28;19956;-95
2022/12/26 16:43:03;;;;;;;;;;;;;;;;;;4966453;28;19914;-95
2022/12/26 16:45:29;;;;;;;;;;;;;;;;;;4965433;28;19965;-96
2022/12/26 16:47:54;;;;;;;;;;;;;;;;;;4965739;28;19914;-95
2022/12/26 16:50:28;;;;;;;;;;;;;;;;;;4984272;28;19913;-96
2022/12/26 16:52:59;;;;;;;;;;;;;;;;;;4965855;28;20004;-95
2022/12/26 16:55:30;;;;;;;;;;;;;;;;;;4986353;28;19914;-96
2022/12/26 16:58:04;;;;;;;;;;;;;;;;;;4968399;28;19918;-95
2022/12/26 17:00:33;;;;;;;;;;;;;;;;;;4968052;28;20018;-94
2022/12/26 17:02:59;;;;;;;;;;;;;;;;;;4991129;28;19920;-95
2022/12/26 17:05:27;;;;;;;;;;;;;;;;;;4972339;28;19921;-94
2022/12/26 17:07:53;;;;;;;;;;;;;;;;;;4986058;28;19918;-96
2022/12/26 17:10:18;;;;;;;;;;;;;;;;;;4977613;28;19921;-94
2022/12/26 17:12:44;;;;;;;;;;;;;;;;;;5001541;28;19932;-94
2022/12/26 17:15:12;;;;;;;;;;;;;;;;;;4980097;28;19949;-95
2022/12/26 17:17:38;;;;;;;;;;;;;;;;;;4973671;28;20009;-95
2022/12/26 17:20:09;;;;;;;;;;;;;;;;;;4972407;28;19917;-95
2022/12/26 17:22:37;;;;;;;;;;;;;;;;;;4991593;28;19957;-93
2022/12/26 17:25:08;;;;;;;;;;;;;;;;;;4974402;28;19937;-95
2022/12/26 17:27:33;;;;;;;;;;;;;;;;;;4978648;28;19922;-95
2022/12/26 17:29:59;;;;;;;;;;;;;;;;;;4982921;28;19902;-95
2022/12/26 17:32:25;;;;;;;;;;;;;;;;;;5015463;28;19901;-94
2022/12/26 17:34:50;;;;;;;;;;;;;;;;;;5019749;23;19925;-88
2022/12/26 17:37:16;;;;;;;;;;;;;;;;;;4995750;28;19917;-88
2022/12/26 17:39:42;;;;;;;;;;;;;;;;;;4982161;28;19920;-89
2022/12/26 17:42:08;;;;;;;;;;;;;;;;;;4997876;28;19953;-88
2022/12/26 17:44:34;;;;;;;;;;;;;;;;;;4982189;28;20278;-88
2022/12/26 17:46:59;;;;;;;;;;;;;;;;;;4981332;28;20346;-87
2022/12/26 17:49:25;;;;;;;;;;;;;;;;;;4995347;28;19914;-88
2022/12/26 17:51:53;;;;;;;;;;;;;;;;;;4980220;28;19914;-87
2022/12/26 17:54:18;;;;;;;;;;;;;;;;;;4983191;28;19977;-90
2022/12/26 17:56:44;;;;;;;;;;;;;;;;;;4980924;28;19917;-89
2022/12/26 17:59:09;;;;;;;;;;;;;;;;;;4995172;28;19969;-89
2022/12/26 18:01:35;;;;;;;;;;;;;;;;;;4997523;28;20389;-90
2022/12/26 18:04:00;;;;;;;;;;;;;;;;;;4981566;28;19914;-90
2022/12/26 18:06:26;;;;;;;;;;;;;;;;;;4977276;28;19917;-88
2022/12/26 18:08:51;;;;;;;;;;;;;;;;;;4983739;28;19913;-86
2022/12/26 18:11:17;;;;;;;;;;;;;;;;;;4979111;28;19914;-87
2022/12/26 18:13:43;;;;;;;;;;;;;;;;;;4999144;28;19904;-90
2022/12/26 18:16:09;;;;;;;;;;;;;;;;;;4999344;28;19928;-86
2022/12/26 18:18:35;;;;;;;;;;;;;;;;;;4983474;28;19913;-88
2022/12/26 18:21:01;;;;;;;;;;;;;;;;;;5014918;28;19910;-87
2022/12/26 18:23:26;;;;;;;;;;;;;;;;;;5015773;28;19914;-88
2022/12/26 18:25:52;;;;;;;;;;;;;;;;;;4982160;28;20329;-84
2022/12/26 18:28:18;;;;;;;;;;;;;;;;;;4981918;28;19917;-89
2022/12/26 18:30:44;;;;;;;;;;;;;;;;;;4980396;28;19918;-86
2022/12/26 18:33:10;;;;;;;;;;;;;;;;;;4983612;28;19905;-85
2022/12/26 18:35:36;;;;;;;;;;;;;;;;;;4999887;28;19950;-87
2022/12/26 18:38:02;;;;;;;;;;;;;;;;;;4980947;28;19952;-84
2022/12/26 18:40:27;;;;;;;;;;;;;;;;;;4995845;28;19920;-85
2022/12/26 18:42:53;;;;;;;;;;;;;;;;;;4997336;28;19910;-85
2022/12/26 18:45:18;;;;;;;;;;;;;;;;;;4993758;28;19976;-84
2022/12/26 18:47:44;;;;;;;;;;;;;;;;;;4975260;28;20366;-86
2022/12/26 18:50:09;;;;;;;;;;;;;;;;;;4980958;28;19914;-88
2022/12/26 18:52:34;;;;;;;;;;;;;;;;;;4983129;28;19920;-86
2022/12/26 18:55:01;;;;;;;;;;;;;;;;;;5006854;28;19914;-85
2022/12/26 18:57:26;;;;;;;;;;;;;;;;;;4976056;28;19924;-85
2022/12/26 18:59:51;;;;;;;;;;;;;;;;;;4972736;28;19921;-87
2022/12/26 19:02:17;;;;;;;;;;;;;;;;;;4974888;28;19953;-83
2022/12/26 19:04:43;;;;;;;;;;;;;;;;;;5010497;28;19977;-84
2022/12/26 19:07:08;;;;;;;;;;;;;;;;;;5012495;28;19918;-86
2022/12/26 19:09:33;;;;;;;;;;;;;;;;;;4993321;28;19949;-85
2022/12/26 19:11:59;;;;;;;;;;;;;;;;;;4990891;28;19956;-86
2022/12/26 19:14:24;;;;;;;;;;;;;;;;;;4963991;28;19987;-86
2022/12/26 19:16:50;;;;;;;;;;;;;;;;;;5005121;28;19917;-85
2022/12/26 19:19:15;;;;;;;;;;;;;;;;;;4995411;28;19914;-85
2022/12/26 19:21:40;;;;;;;;;;;;;;;;;;5013329;28;19914;-87
2022/12/26 19:24:06;;;;;;;;;;;;;;;;;;5015447;28;19948;-85
2022/12/26 19:26:31;;;;;;;;;;;;;;;;;;5000334;28;19914;-84
2022/12/26 19:28:57;;;;;;;;;;;;;;;;;;5014093;28;19914;-84